sensor_id;sensor_type;location;lat;lon;timestamp;temperature;humidity
22006;DHT22;11167;46.988;15.470;2023-04-06T00:00:11;7.40;58.80
22006;DHT22;11167;46.988;15.470;2023-04-06T00:02:13;7.30;58.70
22006;DHT22;11167;46.988;15.470;2023-04-06T00:04:14;7.30;58.70
22006;DHT22;11167;46.988;15.470;2023-04-06T00:06:15;7.30;58.80
22006;DHT22;11167;46.988;15.470;2023-04-06T00:08:16;7.20;59.00
22006;DHT22;11167;46.988;15.470;2023-04-06T00:10:18;7.20;58.80
22006;DHT22;11167;46.988;15.470;2023-04-06T00:12:19;7.20;58.80
22006;DHT22;11167;46.988;15.470;2023-04-06T00:14:21;7.20;58.90
22006;DHT22;11167;46.988;15.470;2023-04-06T00:16:22;7.10;59.40
22006;DHT22;11167;46.988;15.470;2023-04-06T00:18:23;7.10;58.90
22006;DHT22;11167;46.988;15.470;2023-04-06T00:20:24;7.10;58.80
22006;DHT22;11167;46.988;15.470;2023-04-06T00:22:25;7.00;58.80
22006;DHT22;11167;46.988;15.470;2023-04-06T00:24:27;7.00;58.90
22006;DHT22;11167;46.988;15.470;2023-04-06T00:26:28;7.00;58.90
22006;DHT22;11167;46.988;15.470;2023-04-06T00:28:29;6.90;58.90
22006;DHT22;11167;46.988;15.470;2023-04-06T00:30:30;6.90;59.00
22006;DHT22;11167;46.988;15.470;2023-04-06T00:32:31;6.90;59.00
22006;DHT22;11167;46.988;15.470;2023-04-06T00:34:32;6.90;59.00
22006;DHT22;11167;46.988;15.470;2023-04-06T00:36:34;6.80;59.00
22006;DHT22;11167;46.988;15.470;2023-04-06T00:38:35;6.80;59.00
22006;DHT22;11167;46.988;15.470;2023-04-06T00:40:36;6.80;59.10
22006;DHT22;11167;46.988;15.470;2023-04-06T00:42:38;6.80;59.20
22006;DHT22;11167;46.988;15.470;2023-04-06T00:44:40;6.70;59.20
22006;DHT22;11167;46.988;15.470;2023-04-06T00:46:41;6.70;59.10
22006;DHT22;11167;46.988;15.470;2023-04-06T00:48:43;6.70;59.10
22006;DHT22;11167;46.988;15.470;2023-04-06T00:50:44;6.70;59.20
22006;DHT22;11167;46.988;15.470;2023-04-06T00:52:45;6.60;59.10
22006;DHT22;11167;46.988;15.470;2023-04-06T00:54:47;6.60;59.10
22006;DHT22;11167;46.988;15.470;2023-04-06T00:56:49;6.60;59.20
22006;DHT22;11167;46.988;15.470;2023-04-06T00:58:51;6.60;59.30
22006;DHT22;11167;46.988;15.470;2023-04-06T01:00:53;6.50;59.20
22006;DHT22;11167;46.988;15.470;2023-04-06T01:02:54;6.50;59.20
22006;DHT22;11167;46.988;15.470;2023-04-06T01:04:55;6.50;59.30
22006;DHT22;11167;46.988;15.470;2023-04-06T01:06:57;6.50;59.30
22006;DHT22;11167;46.988;15.470;2023-04-06T01:08:58;6.50;59.30
22006;DHT22;11167;46.988;15.470;2023-04-06T01:11:00;6.40;59.60
22006;DHT22;11167;46.988;15.470;2023-04-06T01:13:01;6.40;59.30
22006;DHT22;11167;46.988;15.470;2023-04-06T01:15:03;6.40;59.30
22006;DHT22;11167;46.988;15.470;2023-04-06T01:17:04;6.30;59.30
22006;DHT22;11167;46.988;15.470;2023-04-06T01:19:10;6.30;59.40
22006;DHT22;11167;46.988;15.470;2023-04-06T01:21:11;6.30;59.40
22006;DHT22;11167;46.988;15.470;2023-04-06T01:23:14;6.30;59.40
22006;DHT22;11167;46.988;15.470;2023-04-06T01:25:15;6.20;59.40
22006;DHT22;11167;46.988;15.470;2023-04-06T01:27:16;6.20;59.40
22006;DHT22;11167;46.988;15.470;2023-04-06T01:29:18;6.20;59.40
22006;DHT22;11167;46.988;15.470;2023-04-06T01:31:19;6.20;60.20
22006;DHT22;11167;46.988;15.470;2023-04-06T01:33:20;6.10;59.40
22006;DHT22;11167;46.988;15.470;2023-04-06T01:35:21;6.10;59.50
22006;DHT22;11167;46.988;15.470;2023-04-06T01:37:24;6.10;59.60
22006;DHT22;11167;46.988;15.470;2023-04-06T01:39:25;6.10;59.50
22006;DHT22;11167;46.988;15.470;2023-04-06T01:41:26;6.00;59.50
22006;DHT22;11167;46.988;15.470;2023-04-06T01:43:27;6.00;59.60
22006;DHT22;11167;46.988;15.470;2023-04-06T01:45:28;6.00;59.60
22006;DHT22;11167;46.988;15.470;2023-04-06T01:47:30;6.00;59.70
22006;DHT22;11167;46.988;15.470;2023-04-06T01:49:31;5.90;58.90
22006;DHT22;11167;46.988;15.470;2023-04-06T01:51:33;5.90;59.70
22006;DHT22;11167;46.988;15.470;2023-04-06T01:53:34;5.90;59.70
22006;DHT22;11167;46.988;15.470;2023-04-06T01:55:35;5.90;59.70
22006;DHT22;11167;46.988;15.470;2023-04-06T01:57:36;5.90;59.70
22006;DHT22;11167;46.988;15.470;2023-04-06T01:59:37;5.80;59.80
22006;DHT22;11167;46.988;15.470;2023-04-06T02:01:38;5.80;59.70
22006;DHT22;11167;46.988;15.470;2023-04-06T02:03:39;5.80;59.80
22006;DHT22;11167;46.988;15.470;2023-04-06T02:05:40;5.80;59.80
22006;DHT22;11167;46.988;15.470;2023-04-06T02:07:41;5.80;59.80
22006;DHT22;11167;46.988;15.470;2023-04-06T02:09:43;5.70;59.80
22006;DHT22;11167;46.988;15.470;2023-04-06T02:11:44;5.70;59.90
22006;DHT22;11167;46.988;15.470;2023-04-06T02:13:46;5.70;59.90
22006;DHT22;11167;46.988;15.470;2023-04-06T02:15:47;5.70;59.90
22006;DHT22;11167;46.988;15.470;2023-04-06T02:17:48;5.60;59.80
22006;DHT22;11167;46.988;15.470;2023-04-06T02:19:49;5.60;59.90
22006;DHT22;11167;46.988;15.470;2023-04-06T02:21:50;5.60;59.80
22006;DHT22;11167;46.988;15.470;2023-04-06T02:23:52;5.60;59.90
22006;DHT22;11167;46.988;15.470;2023-04-06T02:25:53;5.60;59.90
22006;DHT22;11167;46.988;15.470;2023-04-06T02:27:54;5.60;59.90
22006;DHT22;11167;46.988;15.470;2023-04-06T02:29:55;5.50;60.00
22006;DHT22;11167;46.988;15.470;2023-04-06T02:31:56;5.50;60.00
22006;DHT22;11167;46.988;15.470;2023-04-06T02:33:57;5.50;60.00
22006;DHT22;11167;46.988;15.470;2023-04-06T02:35:58;5.40;60.10
22006;DHT22;11167;46.988;15.470;2023-04-06T02:38:00;5.40;60.00
22006;DHT22;11167;46.988;15.470;2023-04-06T02:40:01;5.40;60.10
22006;DHT22;11167;46.988;15.470;2023-04-06T02:42:02;5.40;61.00
22006;DHT22;11167;46.988;15.470;2023-04-06T02:44:03;5.40;60.20
22006;DHT22;11167;46.988;15.470;2023-04-06T02:46:05;5.40;60.20
22006;DHT22;11167;46.988;15.470;2023-04-06T02:48:07;5.30;60.30
22006;DHT22;11167;46.988;15.470;2023-04-06T02:50:08;5.30;60.30
22006;DHT22;11167;46.988;15.470;2023-04-06T02:52:10;5.30;60.20
22006;DHT22;11167;46.988;15.470;2023-04-06T02:54:11;5.30;60.40
22006;DHT22;11167;46.988;15.470;2023-04-06T02:56:12;5.30;60.40
22006;DHT22;11167;46.988;15.470;2023-04-06T02:58:14;5.20;60.70
22006;DHT22;11167;46.988;15.470;2023-04-06T03:00:15;5.20;60.40
22006;DHT22;11167;46.988;15.470;2023-04-06T03:02:16;5.20;60.40
22006;DHT22;11167;46.988;15.470;2023-04-06T03:04:18;5.20;60.50
22006;DHT22;11167;46.988;15.470;2023-04-06T03:06:20;5.20;61.50
22006;DHT22;11167;46.988;15.470;2023-04-06T03:08:21;5.10;60.50
22006;DHT22;11167;46.988;15.470;2023-04-06T03:10:22;5.10;60.50
22006;DHT22;11167;46.988;15.470;2023-04-06T03:12:25;5.10;60.60
22006;DHT22;11167;46.988;15.470;2023-04-06T03:14:27;5.10;60.60
22006;DHT22;11167;46.988;15.470;2023-04-06T03:16:28;5.00;60.50
22006;DHT22;11167;46.988;15.470;2023-04-06T03:18:30;5.00;60.50
22006;DHT22;11167;46.988;15.470;2023-04-06T03:20:31;5.00;60.80
22006;DHT22;11167;46.988;15.470;2023-04-06T03:22:32;5.00;60.60
22006;DHT22;11167;46.988;15.470;2023-04-06T03:24:33;5.00;60.70
22006;DHT22;11167;46.988;15.470;2023-04-06T03:26:34;5.00;60.70
22006;DHT22;11167;46.988;15.470;2023-04-06T03:28:55;5.00;60.80
22006;DHT22;11167;46.988;15.470;2023-04-06T03:30:56;4.90;60.70
22006;DHT22;11167;46.988;15.470;2023-04-06T03:32:57;4.90;60.90
22006;DHT22;11167;46.988;15.470;2023-04-06T03:34:58;4.90;60.90
22006;DHT22;11167;46.988;15.470;2023-04-06T03:37:00;4.90;61.70
22006;DHT22;11167;46.988;15.470;2023-04-06T03:39:01;4.80;60.90
22006;DHT22;11167;46.988;15.470;2023-04-06T03:41:02;4.80;60.70
22006;DHT22;11167;46.988;15.470;2023-04-06T03:43:04;4.80;60.80
22006;DHT22;11167;46.988;15.470;2023-04-06T03:45:06;4.80;60.80
22006;DHT22;11167;46.988;15.470;2023-04-06T03:47:08;4.80;60.90
22006;DHT22;11167;46.988;15.470;2023-04-06T03:49:09;4.70;60.70
22006;DHT22;11167;46.988;15.470;2023-04-06T03:51:10;4.70;60.90
22006;DHT22;11167;46.988;15.470;2023-04-06T03:53:11;4.70;60.90
22006;DHT22;11167;46.988;15.470;2023-04-06T03:55:12;4.70;61.00
22006;DHT22;11167;46.988;15.470;2023-04-06T03:57:14;4.70;61.00
22006;DHT22;11167;46.988;15.470;2023-04-06T03:59:15;4.60;60.90
22006;DHT22;11167;46.988;15.470;2023-04-06T04:01:17;4.60;60.90
22006;DHT22;11167;46.988;15.470;2023-04-06T04:03:19;4.60;61.00
22006;DHT22;11167;46.988;15.470;2023-04-06T04:05:20;4.60;61.10
22006;DHT22;11167;46.988;15.470;2023-04-06T04:07:23;4.60;60.50
22006;DHT22;11167;46.988;15.470;2023-04-06T04:09:24;4.60;61.10
22006;DHT22;11167;46.988;15.470;2023-04-06T04:11:26;4.50;61.10
22006;DHT22;11167;46.988;15.470;2023-04-06T04:13:27;4.50;61.10
22006;DHT22;11167;46.988;15.470;2023-04-06T04:15:29;4.50;61.30
22006;DHT22;11167;46.988;15.470;2023-04-06T04:17:30;4.50;61.20
22006;DHT22;11167;46.988;15.470;2023-04-06T04:19:31;4.50;61.30
22006;DHT22;11167;46.988;15.470;2023-04-06T04:21:33;4.50;61.30
22006;DHT22;11167;46.988;15.470;2023-04-06T04:23:34;4.40;61.40
22006;DHT22;11167;46.988;15.470;2023-04-06T04:25:35;4.40;61.40
22006;DHT22;11167;46.988;15.470;2023-04-06T04:27:37;4.40;61.50
22006;DHT22;11167;46.988;15.470;2023-04-06T04:29:38;4.40;61.40
22006;DHT22;11167;46.988;15.470;2023-04-06T04:31:39;4.40;61.50
22006;DHT22;11167;46.988;15.470;2023-04-06T04:33:40;4.40;61.50
22006;DHT22;11167;46.988;15.470;2023-04-06T04:35:41;4.30;62.30
22006;DHT22;11167;46.988;15.470;2023-04-06T04:37:43;4.30;61.40
22006;DHT22;11167;46.988;15.470;2023-04-06T04:39:45;4.30;61.60
22006;DHT22;11167;46.988;15.470;2023-04-06T04:41:46;4.30;61.60
22006;DHT22;11167;46.988;15.470;2023-04-06T04:43:47;4.30;61.50
22006;DHT22;11167;46.988;15.470;2023-04-06T04:45:48;4.30;61.50
22006;DHT22;11167;46.988;15.470;2023-04-06T04:47:49;4.20;61.60
22006;DHT22;11167;46.988;15.470;2023-04-06T04:49:51;4.20;61.60
22006;DHT22;11167;46.988;15.470;2023-04-06T04:51:52;4.20;61.50
22006;DHT22;11167;46.988;15.470;2023-04-06T04:53:53;4.20;61.60
22006;DHT22;11167;46.988;15.470;2023-04-06T04:55:55;4.20;61.60
22006;DHT22;11167;46.988;15.470;2023-04-06T04:57:56;4.20;61.60
22006;DHT22;11167;46.988;15.470;2023-04-06T04:59:57;4.20;61.60
22006;DHT22;11167;46.988;15.470;2023-04-06T05:01:59;4.10;61.70
22006;DHT22;11167;46.988;15.470;2023-04-06T05:04:00;4.10;61.70
22006;DHT22;11167;46.988;15.470;2023-04-06T05:06:01;4.10;61.70
22006;DHT22;11167;46.988;15.470;2023-04-06T05:08:02;4.10;62.00
22006;DHT22;11167;46.988;15.470;2023-04-06T05:10:04;4.10;61.70
22006;DHT22;11167;46.988;15.470;2023-04-06T05:12:05;4.10;61.70
22006;DHT22;11167;46.988;15.470;2023-04-06T05:14:07;4.00;61.70
22006;DHT22;11167;46.988;15.470;2023-04-06T05:16:08;4.00;61.70
22006;DHT22;11167;46.988;15.470;2023-04-06T05:18:09;4.00;62.10
22006;DHT22;11167;46.988;15.470;2023-04-06T05:20:11;4.00;61.70
22006;DHT22;11167;46.988;15.470;2023-04-06T05:22:13;4.00;61.70
22006;DHT22;11167;46.988;15.470;2023-04-06T05:24:16;4.00;61.70
22006;DHT22;11167;46.988;15.470;2023-04-06T05:26:17;3.90;61.90
22006;DHT22;11167;46.988;15.470;2023-04-06T05:28:19;3.90;61.90
22006;DHT22;11167;46.988;15.470;2023-04-06T05:30:20;3.90;61.90
22006;DHT22;11167;46.988;15.470;2023-04-06T05:32:21;3.90;62.00
22006;DHT22;11167;46.988;15.470;2023-04-06T05:34:24;3.90;62.00
22006;DHT22;11167;46.988;15.470;2023-04-06T05:36:26;3.90;62.10
22006;DHT22;11167;46.988;15.470;2023-04-06T05:38:27;3.90;62.10
22006;DHT22;11167;46.988;15.470;2023-04-06T05:40:28;3.90;62.10
22006;DHT22;11167;46.988;15.470;2023-04-06T05:42:39;3.90;62.10
22006;DHT22;11167;46.988;15.470;2023-04-06T05:44:40;3.90;62.30
22006;DHT22;11167;46.988;15.470;2023-04-06T05:46:41;3.80;62.10
22006;DHT22;11167;46.988;15.470;2023-04-06T05:48:42;3.80;62.10
22006;DHT22;11167;46.988;15.470;2023-04-06T05:50:48;3.80;62.20
22006;DHT22;11167;46.988;15.470;2023-04-06T05:52:51;3.80;62.30
22006;DHT22;11167;46.988;15.470;2023-04-06T05:54:52;3.80;62.20
22006;DHT22;11167;46.988;15.470;2023-04-06T05:56:53;3.80;62.30
22006;DHT22;11167;46.988;15.470;2023-04-06T05:58:55;3.80;62.30
22006;DHT22;11167;46.988;15.470;2023-04-06T06:01:00;3.80;62.20
22006;DHT22;11167;46.988;15.470;2023-04-06T06:03:01;3.80;62.30
22006;DHT22;11167;46.988;15.470;2023-04-06T06:05:04;3.80;62.10
22006;DHT22;11167;46.988;15.470;2023-04-06T06:07:05;3.70;62.10
22006;DHT22;11167;46.988;15.470;2023-04-06T06:09:07;3.70;62.10
22006;DHT22;11167;46.988;15.470;2023-04-06T06:11:09;3.70;62.20
22006;DHT22;11167;46.988;15.470;2023-04-06T06:13:10;3.70;62.10
22006;DHT22;11167;46.988;15.470;2023-04-06T06:15:13;3.70;62.30
22006;DHT22;11167;46.988;15.470;2023-04-06T06:17:14;3.70;62.30
22006;DHT22;11167;46.988;15.470;2023-04-06T06:19:16;3.70;62.30
22006;DHT22;11167;46.988;15.470;2023-04-06T06:21:17;3.70;62.30
22006;DHT22;11167;46.988;15.470;2023-04-06T06:23:20;3.70;62.30
22006;DHT22;11167;46.988;15.470;2023-04-06T06:25:24;3.70;62.30
22006;DHT22;11167;46.988;15.470;2023-04-06T06:27:28;3.70;62.30
22006;DHT22;11167;46.988;15.470;2023-04-06T06:29:30;3.70;62.40
22006;DHT22;11167;46.988;15.470;2023-04-06T06:31:31;3.70;62.30
22006;DHT22;11167;46.988;15.470;2023-04-06T06:33:32;3.70;62.50
22006;DHT22;11167;46.988;15.470;2023-04-06T06:35:33;3.70;62.30
22006;DHT22;11167;46.988;15.470;2023-04-06T06:37:35;3.70;62.40
22006;DHT22;11167;46.988;15.470;2023-04-06T06:39:36;3.60;62.20
22006;DHT22;11167;46.988;15.470;2023-04-06T06:41:37;3.70;62.30
22006;DHT22;11167;46.988;15.470;2023-04-06T06:43:38;3.70;62.30
22006;DHT22;11167;46.988;15.470;2023-04-06T06:45:40;3.70;62.30
22006;DHT22;11167;46.988;15.470;2023-04-06T06:47:41;3.60;62.20
22006;DHT22;11167;46.988;15.470;2023-04-06T06:49:43;3.60;62.30
22006;DHT22;11167;46.988;15.470;2023-04-06T06:51:44;3.70;62.40
22006;DHT22;11167;46.988;15.470;2023-04-06T06:53:47;3.60;62.40
22006;DHT22;11167;46.988;15.470;2023-04-06T06:55:48;3.60;62.30
22006;DHT22;11167;46.988;15.470;2023-04-06T06:57:49;3.60;62.20
22006;DHT22;11167;46.988;15.470;2023-04-06T06:59:50;3.60;62.30
22006;DHT22;11167;46.988;15.470;2023-04-06T07:01:51;3.60;61.60
22006;DHT22;11167;46.988;15.470;2023-04-06T07:03:52;3.60;62.70
22006;DHT22;11167;46.988;15.470;2023-04-06T07:05:54;3.60;62.30
22006;DHT22;11167;46.988;15.470;2023-04-06T07:07:55;3.60;62.30
22006;DHT22;11167;46.988;15.470;2023-04-06T07:09:56;3.60;62.30
22006;DHT22;11167;46.988;15.470;2023-04-06T07:11:58;3.60;62.20
22006;DHT22;11167;46.988;15.470;2023-04-06T07:13:59;3.60;62.30
22006;DHT22;11167;46.988;15.470;2023-04-06T07:16:00;3.60;62.30
22006;DHT22;11167;46.988;15.470;2023-04-06T07:18:01;3.70;62.30
22006;DHT22;11167;46.988;15.470;2023-04-06T07:20:02;3.70;62.20
22006;DHT22;11167;46.988;15.470;2023-04-06T07:22:04;3.60;62.20
22006;DHT22;11167;46.988;15.470;2023-04-06T07:24:05;3.70;62.30
22006;DHT22;11167;46.988;15.470;2023-04-06T07:26:07;3.60;62.90
22006;DHT22;11167;46.988;15.470;2023-04-06T07:28:08;3.70;62.20
22006;DHT22;11167;46.988;15.470;2023-04-06T07:30:09;3.70;62.10
22006;DHT22;11167;46.988;15.470;2023-04-06T07:32:10;3.70;62.10
22006;DHT22;11167;46.988;15.470;2023-04-06T07:34:13;3.70;62.10
22006;DHT22;11167;46.988;15.470;2023-04-06T07:36:15;3.70;62.20
22006;DHT22;11167;46.988;15.470;2023-04-06T07:38:16;3.70;63.00
22006;DHT22;11167;46.988;15.470;2023-04-06T07:40:17;3.70;62.10
22006;DHT22;11167;46.988;15.470;2023-04-06T07:42:18;3.70;62.10
22006;DHT22;11167;46.988;15.470;2023-04-06T07:44:20;3.70;62.70
22006;DHT22;11167;46.988;15.470;2023-04-06T07:46:21;3.70;62.00
22006;DHT22;11167;46.988;15.470;2023-04-06T07:48:22;3.70;62.00
22006;DHT22;11167;46.988;15.470;2023-04-06T07:50:24;3.70;62.00
22006;DHT22;11167;46.988;15.470;2023-04-06T07:52:25;3.80;62.00
22006;DHT22;11167;46.988;15.470;2023-04-06T07:54:26;3.80;61.90
22006;DHT22;11167;46.988;15.470;2023-04-06T07:56:27;3.80;62.10
22006;DHT22;11167;46.988;15.470;2023-04-06T07:58:28;3.80;62.00
22006;DHT22;11167;46.988;15.470;2023-04-06T08:00:30;3.80;62.10
22006;DHT22;11167;46.988;15.470;2023-04-06T08:02:32;3.80;62.00
22006;DHT22;11167;46.988;15.470;2023-04-06T08:04:33;3.80;61.90
22006;DHT22;11167;46.988;15.470;2023-04-06T08:06:34;3.80;62.00
22006;DHT22;11167;46.988;15.470;2023-04-06T08:08:37;3.80;61.90
22006;DHT22;11167;46.988;15.470;2023-04-06T08:10:38;3.80;61.90
22006;DHT22;11167;46.988;15.470;2023-04-06T08:12:39;3.80;61.50
22006;DHT22;11167;46.988;15.470;2023-04-06T08:14:40;3.90;61.80
22006;DHT22;11167;46.988;15.470;2023-04-06T08:16:41;3.90;62.70
22006;DHT22;11167;46.988;15.470;2023-04-06T08:18:43;3.90;61.70
22006;DHT22;11167;46.988;15.470;2023-04-06T08:20:45;3.90;61.70
22006;DHT22;11167;46.988;15.470;2023-04-06T08:22:49;3.90;61.70
22006;DHT22;11167;46.988;15.470;2023-04-06T08:24:50;3.90;61.70
22006;DHT22;11167;46.988;15.470;2023-04-06T08:26:52;3.90;62.00
22006;DHT22;11167;46.988;15.470;2023-04-06T08:28:53;3.90;61.60
22006;DHT22;11167;46.988;15.470;2023-04-06T08:30:55;4.00;61.70
22006;DHT22;11167;46.988;15.470;2023-04-06T08:32:56;4.00;61.70
22006;DHT22;11167;46.988;15.470;2023-04-06T08:34:57;4.00;61.60
22006;DHT22;11167;46.988;15.470;2023-04-06T08:36:58;4.00;61.70
22006;DHT22;11167;46.988;15.470;2023-04-06T08:39:00;4.00;62.40
22006;DHT22;11167;46.988;15.470;2023-04-06T08:41:07;4.00;61.60
22006;DHT22;11167;46.988;15.470;2023-04-06T08:43:11;4.10;61.60
22006;DHT22;11167;46.988;15.470;2023-04-06T08:45:13;4.10;61.50
22006;DHT22;11167;46.988;15.470;2023-04-06T08:47:16;4.10;61.50
22006;DHT22;11167;46.988;15.470;2023-04-06T08:49:17;4.10;61.80
22006;DHT22;11167;46.988;15.470;2023-04-06T08:51:19;4.20;61.60
22006;DHT22;11167;46.988;15.470;2023-04-06T08:53:20;4.20;61.70
22006;DHT22;11167;46.988;15.470;2023-04-06T08:55:22;4.20;61.60
22006;DHT22;11167;46.988;15.470;2023-04-06T08:57:24;4.20;61.60
22006;DHT22;11167;46.988;15.470;2023-04-06T08:59:25;4.20;61.70
22006;DHT22;11167;46.988;15.470;2023-04-06T09:01:27;4.30;61.40
22006;DHT22;11167;46.988;15.470;2023-04-06T09:03:29;4.30;60.90
22006;DHT22;11167;46.988;15.470;2023-04-06T09:05:32;4.30;61.40
22006;DHT22;11167;46.988;15.470;2023-04-06T09:07:33;4.40;61.50
22006;DHT22;11167;46.988;15.470;2023-04-06T09:09:34;4.40;61.50
22006;DHT22;11167;46.988;15.470;2023-04-06T09:11:43;4.40;61.50
22006;DHT22;11167;46.988;15.470;2023-04-06T09:13:47;4.50;61.60
22006;DHT22;11167;46.988;15.470;2023-04-06T09:16:02;4.50;61.50
22006;DHT22;11167;46.988;15.470;2023-04-06T09:18:04;4.50;61.50
22006;DHT22;11167;46.988;15.470;2023-04-06T09:20:06;4.50;61.50
22006;DHT22;11167;46.988;15.470;2023-04-06T09:22:08;4.60;61.50
22006;DHT22;11167;46.988;15.470;2023-04-06T09:24:10;4.60;61.50
22006;DHT22;11167;46.988;15.470;2023-04-06T09:26:14;4.70;61.50
22006;DHT22;11167;46.988;15.470;2023-04-06T09:28:15;4.70;61.50
22006;DHT22;11167;46.988;15.470;2023-04-06T09:30:16;4.70;61.60
22006;DHT22;11167;46.988;15.470;2023-04-06T09:32:18;4.80;62.00
22006;DHT22;11167;46.988;15.470;2023-04-06T09:34:22;4.80;61.60
22006;DHT22;11167;46.988;15.470;2023-04-06T09:36:33;4.80;61.60
22006;DHT22;11167;46.988;15.470;2023-04-06T09:38:34;4.90;61.70
22006;DHT22;11167;46.988;15.470;2023-04-06T09:40:36;4.90;61.60
22006;DHT22;11167;46.988;15.470;2023-04-06T09:42:37;5.00;61.70
22006;DHT22;11167;46.988;15.470;2023-04-06T09:44:38;5.00;61.80
22006;DHT22;11167;46.988;15.470;2023-04-06T09:46:44;5.00;61.60
22006;DHT22;11167;46.988;15.470;2023-04-06T09:48:45;5.10;61.70
22006;DHT22;11167;46.988;15.470;2023-04-06T09:51:06;5.10;61.50
22006;DHT22;11167;46.988;15.470;2023-04-06T09:53:09;5.20;61.60
22006;DHT22;11167;46.988;15.470;2023-04-06T09:55:10;5.20;61.50
22006;DHT22;11167;46.988;15.470;2023-04-06T09:57:37;5.30;61.40
22006;DHT22;11167;46.988;15.470;2023-04-06T09:59:47;5.30;61.40
22006;DHT22;11167;46.988;15.470;2023-04-06T10:01:48;5.40;61.40
22006;DHT22;11167;46.988;15.470;2023-04-06T10:03:52;5.40;61.40
22006;DHT22;11167;46.988;15.470;2023-04-06T10:06:00;5.40;61.40
22006;DHT22;11167;46.988;15.470;2023-04-06T10:08:05;5.50;60.80
22006;DHT22;11167;46.988;15.470;2023-04-06T10:10:06;5.50;61.40
22006;DHT22;11167;46.988;15.470;2023-04-06T10:12:08;5.60;61.50
22006;DHT22;11167;46.988;15.470;2023-04-06T10:14:10;5.60;61.30
22006;DHT22;11167;46.988;15.470;2023-04-06T10:16:14;5.70;61.30
22006;DHT22;11167;46.988;15.470;2023-04-06T10:18:16;5.70;61.30
22006;DHT22;11167;46.988;15.470;2023-04-06T10:22:43;5.90;61.50
22006;DHT22;11167;46.988;15.470;2023-04-06T10:24:44;5.90;61.30
22006;DHT22;11167;46.988;15.470;2023-04-06T10:26:56;5.90;61.30
22006;DHT22;11167;46.988;15.470;2023-04-06T10:29:02;6.00;61.40
22006;DHT22;11167;46.988;15.470;2023-04-06T10:31:25;6.00;61.40
22006;DHT22;11167;46.988;15.470;2023-04-06T10:33:28;6.10;62.20
22006;DHT22;11167;46.988;15.470;2023-04-06T10:35:38;6.20;61.50
22006;DHT22;11167;46.988;15.470;2023-04-06T10:37:59;6.20;61.30
22006;DHT22;11167;46.988;15.470;2023-04-06T10:39:56;6.30;61.40
22006;DHT22;11167;46.988;15.470;2023-04-06T10:42:06;6.30;61.40
22006;DHT22;11167;46.988;15.470;2023-04-06T10:44:04;6.40;61.40
22006;DHT22;11167;46.988;15.470;2023-04-06T10:46:08;6.40;61.40
22006;DHT22;11167;46.988;15.470;2023-04-06T10:48:17;6.50;62.20
22006;DHT22;11167;46.988;15.470;2023-04-06T10:50:18;6.50;61.40
22006;DHT22;11167;46.988;15.470;2023-04-06T10:52:20;6.60;61.50
22006;DHT22;11167;46.988;15.470;2023-04-06T10:54:22;6.70;61.50
22006;DHT22;11167;46.988;15.470;2023-04-06T10:56:24;6.70;61.60
22006;DHT22;11167;46.988;15.470;2023-04-06T10:58:27;6.80;61.50
22006;DHT22;11167;46.988;15.470;2023-04-06T11:00:28;6.80;61.50
22006;DHT22;11167;46.988;15.470;2023-04-06T11:02:31;6.90;61.60
22006;DHT22;11167;46.988;15.470;2023-04-06T11:04:55;7.00;61.70
22006;DHT22;11167;46.988;15.470;2023-04-06T11:06:57;7.00;61.60
22006;DHT22;11167;46.988;15.470;2023-04-06T11:08:59;7.10;61.50
22006;DHT22;11167;46.988;15.470;2023-04-06T11:11:11;7.20;61.70
22006;DHT22;11167;46.988;15.470;2023-04-06T11:13:16;7.20;61.70
22006;DHT22;11167;46.988;15.470;2023-04-06T11:15:18;7.30;61.70
22006;DHT22;11167;46.988;15.470;2023-04-06T11:17:27;7.40;61.30
22006;DHT22;11167;46.988;15.470;2023-04-06T11:19:28;7.40;61.00
22006;DHT22;11167;46.988;15.470;2023-04-06T11:21:45;7.50;60.00
22006;DHT22;11167;46.988;15.470;2023-04-06T11:23:49;7.60;59.90
22006;DHT22;11167;46.988;15.470;2023-04-06T11:25:51;7.80;59.20
22006;DHT22;11167;46.988;15.470;2023-04-06T11:27:52;7.90;59.00
22006;DHT22;11167;46.988;15.470;2023-04-06T11:29:55;8.00;59.00
22006;DHT22;11167;46.988;15.470;2023-04-06T11:32:01;8.20;59.50
22006;DHT22;11167;46.988;15.470;2023-04-06T11:34:09;8.30;58.60
22006;DHT22;11167;46.988;15.470;2023-04-06T11:36:10;8.40;58.70
22006;DHT22;11167;46.988;15.470;2023-04-06T11:38:11;8.60;57.80
22006;DHT22;11167;46.988;15.470;2023-04-06T11:40:12;8.70;57.00
22006;DHT22;11167;46.988;15.470;2023-04-06T11:42:22;8.90;57.70
22006;DHT22;11167;46.988;15.470;2023-04-06T11:44:38;9.00;58.30
22006;DHT22;11167;46.988;15.470;2023-04-06T11:46:40;9.20;58.50
22006;DHT22;11167;46.988;15.470;2023-04-06T11:48:45;9.30;58.00
22006;DHT22;11167;46.988;15.470;2023-04-06T11:50:47;9.50;57.50
22006;DHT22;11167;46.988;15.470;2023-04-06T11:53:00;9.60;57.50
22006;DHT22;11167;46.988;15.470;2023-04-06T11:55:16;9.70;56.60
22006;DHT22;11167;46.988;15.470;2023-04-06T11:57:19;9.90;57.50
22006;DHT22;11167;46.988;15.470;2023-04-06T11:59:20;10.00;56.80
22006;DHT22;11167;46.988;15.470;2023-04-06T12:01:22;10.10;57.10
22006;DHT22;11167;46.988;15.470;2023-04-06T12:03:24;10.30;57.10
22006;DHT22;11167;46.988;15.470;2023-04-06T12:05:25;10.40;56.20
22006;DHT22;11167;46.988;15.470;2023-04-06T12:07:26;10.50;56.40
22006;DHT22;11167;46.988;15.470;2023-04-06T12:09:27;10.60;55.80
22006;DHT22;11167;46.988;15.470;2023-04-06T12:11:28;10.80;56.10
22006;DHT22;11167;46.988;15.470;2023-04-06T12:13:29;10.90;55.20
22006;DHT22;11167;46.988;15.470;2023-04-06T12:15:32;11.00;53.50
22006;DHT22;11167;46.988;15.470;2023-04-06T12:17:33;11.20;54.50
22006;DHT22;11167;46.988;15.470;2023-04-06T12:19:34;11.30;54.60
22006;DHT22;11167;46.988;15.470;2023-04-06T12:21:36;11.40;54.20
22006;DHT22;11167;46.988;15.470;2023-04-06T12:23:41;11.50;54.50
22006;DHT22;11167;46.988;15.470;2023-04-06T12:25:43;11.70;55.30
22006;DHT22;11167;46.988;15.470;2023-04-06T12:27:44;11.80;55.10
22006;DHT22;11167;46.988;15.470;2023-04-06T12:29:47;12.00;55.50
22006;DHT22;11167;46.988;15.470;2023-04-06T12:31:48;12.20;55.50
22006;DHT22;11167;46.988;15.470;2023-04-06T12:33:50;12.30;54.20
22006;DHT22;11167;46.988;15.470;2023-04-06T12:35:51;12.40;54.10
22006;DHT22;11167;46.988;15.470;2023-04-06T12:37:52;12.60;52.10
22006;DHT22;11167;46.988;15.470;2023-04-06T12:39:54;12.60;49.30
22006;DHT22;11167;46.988;15.470;2023-04-06T12:41:55;12.70;54.00
22006;DHT22;11167;46.988;15.470;2023-04-06T12:43:58;12.90;54.40
22006;DHT22;11167;46.988;15.470;2023-04-06T12:46:00;13.00;54.40
22006;DHT22;11167;46.988;15.470;2023-04-06T12:48:01;13.10;52.60
22006;DHT22;11167;46.988;15.470;2023-04-06T12:50:03;13.10;51.30
22006;DHT22;11167;46.988;15.470;2023-04-06T12:52:04;13.20;53.10
22006;DHT22;11167;46.988;15.470;2023-04-06T12:54:06;13.30;51.90